createdAt,value
2022-08-20T06:44:52.896Z,100.00
2022-08-20T06:47:30.758Z,100.00
2022-08-20T06:50:10.619Z,100.00
2022-08-20T06:52:51.914Z,100.00
2022-08-20T06:55:30.957Z,100.00
2022-08-20T06:58:22.236Z,100.00
2022-08-20T07:01:14.125Z,100.00
2022-08-20T07:03:55.621Z,100.00
2022-08-20T07:06:33.297Z,100.00
2022-08-20T07:09:10.697Z,100.00
2022-08-20T07:11:48.796Z,100.00
2022-08-20T07:14:27.473Z,100.00
2022-08-20T07:17:11.374Z,100.00
2022-08-20T07:19:50.147Z,100.00
2022-08-20T07:22:27.597Z,100.00
2022-08-20T07:25:05.040Z,100.00
2022-08-20T07:27:42.467Z,100.00
2022-08-20T07:30:56.041Z,100.00
2022-08-20T07:33:36.168Z,100.00
2022-08-20T07:36:15.228Z,100.00
2022-08-20T07:38:53.076Z,100.00
2022-08-20T07:41:30.782Z,100.00
2022-08-20T07:44:08.104Z,100.00
2022-08-20T07:46:45.337Z,100.00
2022-08-20T07:49:24.835Z,100.00
2022-08-20T07:52:02.056Z,100.00
2022-08-20T07:54:39.766Z,100.00
2022-08-20T07:57:17.924Z,100.00
2022-08-20T07:59:54.861Z,100.00
2022-08-20T08:02:32.363Z,100.00
2022-08-20T08:05:13.609Z,100.00
2022-08-20T08:07:51.137Z,100.00
2022-08-20T08:10:28.676Z,100.00
2022-08-20T08:13:12.556Z,100.00
2022-08-20T08:15:53.756Z,100.00
2022-08-20T08:18:41.197Z,100.00
2022-08-20T08:21:21.345Z,100.00
2022-08-20T08:23:58.776Z,100.00
2022-08-20T08:26:35.775Z,100.00
2022-08-20T08:29:12.995Z,100.00
2022-08-20T08:31:50.043Z,100.00
2022-08-20T08:34:27.526Z,100.00
2022-08-20T08:37:08.056Z,100.00
2022-08-20T08:39:45.501Z,100.00
2022-08-20T08:42:32.087Z,100.00
2022-08-20T08:45:11.565Z,100.00
2022-08-20T08:47:49.105Z,100.00
2022-08-20T08:50:53.561Z,100.00
2022-08-20T08:53:39.806Z,100.00
2022-08-20T08:56:18.634Z,100.00
2022-08-20T08:58:55.934Z,100.00
2022-08-20T09:01:54.581Z,100.00
2022-08-20T09:04:37.645Z,100.00
2022-08-20T09:07:19.643Z,100.00
2022-08-20T09:09:59.324Z,100.00
2022-08-20T09:12:36.481Z,100.00
2022-08-20T09:15:14.199Z,100.00
2022-08-20T09:17:53.162Z,100.00
2022-08-20T09:20:30.504Z,100.00
2022-08-20T09:23:09.957Z,100.00
2022-08-20T09:25:49.747Z,100.00
2022-08-20T09:28:32.515Z,100.00
2022-08-20T09:31:12.298Z,100.00
2022-08-20T09:33:50.412Z,100.00
2022-08-20T09:36:30.709Z,100.00
2022-08-20T09:39:10.350Z,100.00
2022-08-20T09:41:49.786Z,100.00
2022-08-20T09:44:27.179Z,100.00
2022-08-20T09:47:04.039Z,100.00
2022-08-20T09:49:41.539Z,100.00
2022-08-20T09:52:26.619Z,100.00
2022-08-20T09:55:07.230Z,100.00
2022-08-20T09:57:46.788Z,100.00
2022-08-20T10:00:24.831Z,100.00
2022-08-20T10:03:03.898Z,100.00
2022-08-20T10:05:41.179Z,100.00
2022-08-20T10:08:18.649Z,100.00
2022-08-20T10:10:56.012Z,100.00
2022-08-20T10:13:35.418Z,100.00
2022-08-20T10:16:12.750Z,100.00
2022-08-20T10:18:49.648Z,100.00
2022-08-20T10:21:26.862Z,100.00
2022-08-20T10:24:03.910Z,100.00
2022-08-20T10:26:42.651Z,100.00
2022-08-20T10:29:22.130Z,100.00
2022-08-20T10:32:00.134Z,100.00
2022-08-20T10:34:37.207Z,100.00
2022-08-20T10:37:17.441Z,100.00
2022-08-20T10:39:54.637Z,100.00
2022-08-20T10:42:31.849Z,100.00
2022-08-20T10:45:13.421Z,100.00
2022-08-20T10:47:50.792Z,100.00
2022-08-20T10:50:30.261Z,100.00
2022-08-20T10:53:08.135Z,100.00
2022-08-20T10:55:44.945Z,100.00
2022-08-20T10:58:23.994Z,100.00
2022-08-20T11:01:03.684Z,100.00
2022-08-20T11:03:40.982Z,100.00
2022-08-20T11:06:17.991Z,100.00
2022-08-20T11:08:56.929Z,100.00
2022-08-20T11:11:34.104Z,100.00
2022-08-20T11:14:11.430Z,97.17
2022-08-20T11:16:51.060Z,94.15
2022-08-20T11:19:28.200Z,94.81
2022-08-20T11:22:05.130Z,94.33
2022-08-20T11:24:42.588Z,95.20
2022-08-20T11:27:28.899Z,96.56
2022-08-20T11:30:06.222Z,96.28
2022-08-20T11:32:45.593Z,95.58
2022-08-20T11:35:42.203Z,97.25
2022-08-20T11:38:21.782Z,96.93
2022-08-20T11:40:59.022Z,95.37
2022-08-20T11:43:35.824Z,95.25
2022-08-20T11:46:13.243Z,97.22
2022-08-20T11:48:52.790Z,97.75
2022-08-20T11:51:30.034Z,94.84
2022-08-20T11:54:11.654Z,94.24
2022-08-20T11:56:49.875Z,93.68
2022-08-20T11:59:26.895Z,92.63
2022-08-20T12:02:06.080Z,92.75
2022-08-20T12:04:47.894Z,93.84
2022-08-20T12:07:27.516Z,94.38
2022-08-20T12:10:04.465Z,95.54
2022-08-20T12:12:42.204Z,98.14
2022-08-20T12:15:19.323Z,97.52
2022-08-20T12:17:56.634Z,98.12
2022-08-20T12:20:36.193Z,100.00
2022-08-20T12:23:13.325Z,100.00
2022-08-20T12:25:50.119Z,100.00
2022-08-20T12:28:27.556Z,100.00
2022-08-20T12:31:04.495Z,100.00
2022-08-20T12:33:41.758Z,100.00
2022-08-20T12:36:21.395Z,100.00
2022-08-20T12:38:58.596Z,100.00
2022-08-20T12:41:35.526Z,100.00
2022-08-20T12:44:13.327Z,100.00
2022-08-20T12:46:50.482Z,100.00
2022-08-20T12:49:27.622Z,100.00
2022-08-20T12:52:08.315Z,100.00
2022-08-20T12:54:45.981Z,100.00
2022-08-20T12:57:30.454Z,100.00
2022-08-20T13:00:14.971Z,100.00
2022-08-20T13:02:53.239Z,100.00
2022-08-20T13:05:31.821Z,100.00
2022-08-20T13:08:14.835Z,100.00
2022-08-20T13:10:52.231Z,100.00
2022-08-20T13:13:29.178Z,100.00
2022-08-20T13:16:06.726Z,100.00
2022-08-20T13:18:43.638Z,100.00
2022-08-20T13:21:23.910Z,100.00
2022-08-20T13:24:03.910Z,100.00
2022-08-20T13:26:41.009Z,100.00
2022-08-20T13:29:19.690Z,100.00
2022-08-20T13:31:56.892Z,100.00
2022-08-20T13:34:33.850Z,100.00
2022-08-20T13:37:16.910Z,100.00
2022-08-20T13:39:57.023Z,100.00
2022-08-20T13:42:34.298Z,100.00
2022-08-20T13:45:12.978Z,100.00
2022-08-20T13:47:50.364Z,100.00
2022-08-20T13:50:29.138Z,100.00
2022-08-20T13:53:07.590Z,100.00
2022-08-20T13:55:47.593Z,100.00
2022-08-20T13:58:25.611Z,100.00
2022-08-20T14:01:02.678Z,100.00
2022-08-20T14:03:39.843Z,100.00
2022-08-20T14:06:19.550Z,100.00
2022-08-20T14:08:56.719Z,100.00
2022-08-20T14:11:36.474Z,100.00
2022-08-20T14:14:13.592Z,100.00
2022-08-20T14:16:50.452Z,100.00
2022-08-20T14:19:27.691Z,100.00
2022-08-20T14:22:04.548Z,100.00
2022-08-20T14:24:41.722Z,100.00
2022-08-20T14:27:29.066Z,100.00
2022-08-20T14:30:11.923Z,100.00
2022-08-20T14:32:48.772Z,100.00
2022-08-20T14:35:26.451Z,100.00
2022-08-20T14:38:05.326Z,100.00
2022-08-20T14:40:42.864Z,100.00
2022-08-20T14:43:22.628Z,100.00
2022-08-20T14:45:59.663Z,100.00
2022-08-20T14:48:36.410Z,100.00
2022-08-20T14:51:13.529Z,100.00
2022-08-20T14:53:51.449Z,100.00
2022-08-20T14:56:28.540Z,100.00
2022-08-20T14:59:07.861Z,100.00
2022-08-20T15:01:45.018Z,100.00
2022-08-20T15:04:23.597Z,100.00
2022-08-20T15:07:08.178Z,100.00
2022-08-20T15:09:48.890Z,100.00
2022-08-20T15:12:28.343Z,100.00
2022-08-20T15:15:15.534Z,100.00
2022-08-20T15:17:56.959Z,100.00
2022-08-20T15:20:37.228Z,100.00
2022-08-20T15:23:15.927Z,100.00
2022-08-20T15:25:52.972Z,100.00
2022-08-20T15:28:30.253Z,100.00
2022-08-20T15:31:14.256Z,100.00
2022-08-20T15:33:51.613Z,100.00
2022-08-20T15:36:28.702Z,100.00
2022-08-20T15:39:05.952Z,100.00
2022-08-20T15:41:42.842Z,100.00
2022-08-20T15:44:20.011Z,100.00
2022-08-20T15:46:59.350Z,100.00
2022-08-20T15:49:36.527Z,100.00
2022-08-20T15:52:13.837Z,100.00
2022-08-20T15:54:54.989Z,100.00
2022-08-20T15:57:50.453Z,100.00
2022-08-20T16:00:32.633Z,100.00
2022-08-20T16:03:57.369Z,100.00
2022-08-20T16:06:37.009Z,100.00
2022-08-20T16:09:41.586Z,100.00
2022-08-20T16:12:27.828Z,100.00
2022-08-20T16:15:12.015Z,100.00
2022-08-20T16:17:55.521Z,100.00
2022-08-20T16:20:41.688Z,100.00
2022-08-20T16:23:24.737Z,100.00
2022-08-20T16:26:15.887Z,100.00
2022-08-20T16:29:11.408Z,100.00
2022-08-20T16:31:53.047Z,100.00
2022-08-20T16:34:39.770Z,100.00
2022-08-20T16:37:28.517Z,100.00
2022-08-20T16:40:25.447Z,100.00
2022-08-20T16:43:08.557Z,100.00
2022-08-20T16:45:55.676Z,100.00
2022-08-20T16:48:42.762Z,100.00
2022-08-20T16:51:25.753Z,100.00
2022-08-20T16:54:05.816Z,100.00
2022-08-20T16:56:46.483Z,100.00
2022-08-20T16:59:27.134Z,100.00
2022-08-20T17:02:10.516Z,100.00
2022-08-20T17:04:59.348Z,100.00
2022-08-20T17:07:51.408Z,100.00
2022-08-20T17:10:37.852Z,100.00
2022-08-20T17:13:28.334Z,100.00
2022-08-20T17:16:11.347Z,100.00
2022-08-20T17:18:51.584Z,100.00
2022-08-20T17:21:33.859Z,100.00
2022-08-20T17:24:16.986Z,100.00
2022-08-20T17:27:02.923Z,100.00
2022-08-20T17:29:55.511Z,100.00
2022-08-20T17:32:33.298Z,100.00
2022-08-20T17:35:12.293Z,100.00
2022-08-20T17:37:55.667Z,100.00
2022-08-20T17:40:41.815Z,100.00
2022-08-20T17:43:33.257Z,100.00
2022-08-20T17:46:18.824Z,100.00
2022-08-20T17:48:57.936Z,100.00
2022-08-20T17:51:50.278Z,100.00
2022-08-20T17:54:33.150Z,100.00
2022-08-20T17:57:15.561Z,100.00
2022-08-20T18:00:02.806Z,100.00
2022-08-20T18:02:42.181Z,100.00
2022-08-20T18:05:23.381Z,100.00
2022-08-20T18:08:32.256Z,100.00
2022-08-20T18:11:21.877Z,100.00
2022-08-20T18:14:41.972Z,100.00
2022-08-20T18:18:03.287Z,100.00
2022-08-20T18:21:23.884Z,100.00
2022-08-20T18:24:08.974Z,100.00
2022-08-20T18:26:52.484Z,100.00
2022-08-20T18:29:36.573Z,100.00
2022-08-20T18:32:37.788Z,100.00
2022-08-20T18:35:22.105Z,100.00
2022-08-20T18:37:59.295Z,100.00
2022-08-20T18:40:39.358Z,100.00
2022-08-20T18:43:30.738Z,100.00
2022-08-20T18:46:22.427Z,100.00
2022-08-20T18:49:07.015Z,100.00
2022-08-20T18:51:52.932Z,100.00
2022-08-20T18:54:34.164Z,100.00
2022-08-20T18:57:24.394Z,100.00
